UKLU

Details ICAO UKLU (UDJ)
Name UZHHOROD INTL
Region Ukraine
Timezone Europe/Uzhgorod (UTC+2.0)
Plans Departing 8
Arriving 14
Stats Elevation 383 ft / 117 m (AMSL)
Location 48.634278° 22.263355°
Runways 1
Magnetic Variation 5.544° E
Sunrise 2017-12-18 06:20:18 UTC / 2017-12-18 08:20:18 Local
Sunset 2017-12-18 14:37:28 UTC / 2017-12-18 16:37:28 Local
Advertisement - Login to hide

Runways

ID Width Length Bearing (true) Bearing (mag) Surface Threshold Offset Overrun Length
10 131 ft / 40 m 6,682 ft / 2,037 m 103.38° 97.84° Concrete 0 ft / 0 m 0 ft / 0 m
28 131 ft / 40 m 6,682 ft / 2,037 m 283.40° 277.86° Concrete 1,765 ft / 538 m 0 ft / 0 m

Map

Weather


0- 5 10 15 20 25 30 35+ Temperature / ° C

Clouds and Precipitation
Forecast for 2017-12-18 12:00 UTC. Updated an hour ago

Ground ~20,000 ft ~40,000 ft Winds

METAR

UKLU 181200Z VRB01G07MPS 9999 SCT040 BKN200 03/M06 Q1021 R10/090070 NOSIG

TAF

Not found

Frequencies

Tower 134.50 MHz TWR
Approach 121.90 MHz APP
Warning: Do not use this data for real-world aviation or navigation. No guarantee of current accuracy is given.